^^
Datos históricos de la estación: Murcia-Puente Tocinos
Diario Informe para Septiembre 7, 2019 Unidades:  Ambas    Ingés   Métrico
Diario Semanal Mensual Anual
  Máxima: Mínima: Promedio:
Temperatura: 81.7 °F /  27.6 °C 61.3 °F /  16.3 °C 69.4 °F /  20.8 °C
Punto de rocio: 60.4 °F /  15.8 °C 54 °F /  12.2 °C 57.6 °F /  14.2 °C
Humedad: 88% 39% 68%
Velocidad viento: 13mph /  20.9km/h - 4.2mph /  6.7km/h
Racha viento: 23mph /  37km/h - -
Viento- - SE
Presión: 30 in /  1017.4 hPa 29.9 in /  1012.4 hPa -
Precipitación: 0 in /  0.0 mm    
 
 
Tabla de datos para Septiembre 7, 2019
Hora Temperatura Punto de rocio Presión Viento Velocidad viento Racha viento Humedad Intensidad lluvia(por hora) Nubes
00:04 62.6 °F /  17 °C 57.9 °F /  14.4 °C 30in /  1017.3hPa NE 4.3mph /  6.9km/h 7.4mph /  11.9km/h 85% 0in /  0.0mm
00:09 62.4 °F /  16.9 °C 57.7 °F /  14.3 °C 30in /  1017.2hPa NNE 4.4mph /  7.1km/h 7mph /  11.3km/h 85% 0in /  0.0mm
00:14 62.2 °F /  16.8 °C 57.7 °F /  14.3 °C 30in /  1017.2hPa NE 4.7mph /  7.6km/h 7.4mph /  11.9km/h 85% 0in /  0.0mm
00:19 62.1 °F /  16.7 °C 57.7 °F /  14.3 °C 30in /  1017.4hPa NE 4.5mph /  7.3km/h 7mph /  11.3km/h 85.7% 0in /  0.0mm
00:24 62.1 °F /  16.7 °C 57.7 °F /  14.3 °C 30in /  1017.4hPa NE 4.3mph /  6.9km/h 7.4mph /  11.9km/h 86% 0in /  0.0mm
00:29 62.1 °F /  16.7 °C 57.7 °F /  14.3 °C 30in /  1017.4hPa NE 4.2mph /  6.8km/h 8.1mph /  13km/h 86% 0in /  0.0mm
00:34 61.9 °F /  16.6 °C 57.7 °F /  14.3 °C 30in /  1017.4hPa NE 4mph /  6.5km/h 8.1mph /  13km/h 86% 0in /  0.0mm
00:39 61.9 °F /  16.6 °C 57.6 °F /  14.2 °C 30in /  1017.3hPa NE 4.3mph /  6.9km/h 7.4mph /  11.9km/h 86% 0in /  0.0mm
00:44 61.7 °F /  16.5 °C 57.6 °F /  14.2 °C 30in /  1017.3hPa NE 4.7mph /  7.6km/h 7.4mph /  11.9km/h 86% 0in /  0.0mm
00:49 61.7 °F /  16.5 °C 57.7 °F /  14.3 °C 30in /  1017.4hPa NE 4.5mph /  7.3km/h 7mph /  11.3km/h 87% 0in /  0.0mm
00:54 61.7 °F /  16.5 °C 57.7 °F /  14.3 °C 30in /  1017.4hPa NE 4.3mph /  6.9km/h 7mph /  11.3km/h 87% 0in /  0.0mm
00:59 61.7 °F /  16.5 °C 57.7 °F /  14.3 °C 30in /  1017.4hPa NE 4.2mph /  6.7km/h 7mph /  11.3km/h 87% 0in /  0.0mm
01:04 61.7 °F /  16.5 °C 57.7 °F /  14.3 °C 30in /  1017.4hPa NE 4mph /  6.5km/h 7mph /  11.3km/h 87% 0in /  0.0mm
01:09 61.7 °F /  16.5 °C 57.7 °F /  14.3 °C 30in /  1017.4hPa NE 4mph /  6.5km/h 7mph /  11.3km/h 87% 0in /  0.0mm
01:14 61.7 °F /  16.5 °C 57.7 °F /  14.3 °C 30in /  1017.4hPa NE 4mph /  6.5km/h 7mph /  11.3km/h 87% 0in /  0.0mm
01:19 61.5 °F /  16.4 °C 57.6 °F /  14.2 °C 30in /  1017.4hPa NE 4mph /  6.5km/h 7mph /  11.3km/h 87% 0in /  0.0mm
01:24 61.5 °F /  16.4 °C 57.6 °F /  14.2 °C 30in /  1017.2hPa NE 4mph /  6.5km/h 6mph /  9.7km/h 87% 0in /  0.0mm
01:29 61.5 °F /  16.4 °C 57.6 °F /  14.2 °C 30in /  1017.2hPa NE 3.9mph /  6.2km/h 6mph /  9.7km/h 87% 0in /  0.0mm
01:34 61.5 °F /  16.4 °C 57.6 °F /  14.2 °C 30in /  1017.3hPa NE 3.6mph /  5.8km/h 6mph /  9.7km/h 87% 0in /  0.0mm
01:39 61.5 °F /  16.4 °C 57.6 °F /  14.2 °C 30in /  1017.3hPa NE 3.6mph /  5.8km/h 6mph /  9.7km/h 87% 0in /  0.0mm
01:44 61.5 °F /  16.4 °C 57.6 °F /  14.2 °C 30in /  1017.3hPa NE 3.6mph /  5.8km/h 6mph /  9.7km/h 87% 0in /  0.0mm
01:49 61.5 °F /  16.4 °C 57.6 °F /  14.2 °C 30in /  1017.3hPa NE 3.7mph /  6km/h 6mph /  9.7km/h 87% 0in /  0.0mm
01:54 61.5 °F /  16.4 °C 57.6 °F /  14.2 °C 30in /  1017.2hPa NE 4mph /  6.5km/h 5.8mph /  9.3km/h 87% 0in /  0.0mm
01:59 61.3 °F /  16.3 °C 57.4 °F /  14.1 °C 30in /  1017.2hPa NNE 3.6mph /  5.8km/h 6mph /  9.7km/h 87% 0in /  0.0mm
02:04 61.5 °F /  16.4 °C 57.7 °F /  14.3 °C 30in /  1017.2hPa NNE 3.1mph /  5km/h 5mph /  8km/h 87.5% 0in /  0.0mm
02:09 61.5 °F /  16.4 °C 57.6 °F /  14.2 °C 30in /  1017.2hPa NNE 2.4mph /  3.9km/h 3.6mph /  5.8km/h 87% 0in /  0.0mm
02:14 61.5 °F /  16.4 °C 57.6 °F /  14.2 °C 30in /  1017.2hPa NE 1.4mph /  2.2km/h 5.4mph /  8.7km/h 87% 0in /  0.0mm
02:19 61.5 °F /  16.4 °C 57.9 °F /  14.4 °C 30in /  1017.2hPa NE 2.1mph /  3.3km/h 6mph /  9.7km/h 87.8% 0in /  0.0mm
02:24 61.5 °F /  16.4 °C 57.9 °F /  14.4 °C 30in /  1017.1hPa ENE 3.1mph /  5km/h 6mph /  9.7km/h 88% 0in /  0.0mm
02:29 61.5 °F /  16.4 °C 57.9 °F /  14.4 °C 30in /  1017.1hPa NE 3.1mph /  5km/h 5.4mph /  8.7km/h 88% 0in /  0.0mm
02:34 61.7 °F /  16.5 °C 58.1 °F /  14.5 °C 30in /  1017.1hPa NE 3.1mph /  5km/h 6mph /  9.7km/h 88% 0in /  0.0mm
02:39 61.9 °F /  16.6 °C 58.3 °F /  14.6 °C 30in /  1017.1hPa NE 3.1mph /  5km/h 5mph /  8km/h 88% 0in /  0.0mm
02:44 61.9 °F /  16.6 °C 58.1 °F /  14.5 °C 30in /  1017.1hPa North 3.1mph /  5km/h 5mph /  8km/h 87.2% 0in /  0.0mm
02:49 62.1 °F /  16.7 °C 58.1 °F /  14.5 °C 30in /  1017.1hPa North 2.6mph /  4.2km/h 5mph /  8km/h 87% 0in /  0.0mm
02:54 62.1 °F /  16.7 °C 58.1 °F /  14.5 °C 30in /  1017.1hPa North 1.8mph /  2.9km/h 4mph /  6.4km/h 87% 0in /  0.0mm
02:59 62.1 °F /  16.7 °C 58.1 °F /  14.5 °C 30in /  1017.1hPa North 0.9mph /  1.5km/h 2mph /  3.2km/h 87% 0in /  0.0mm
03:04 62.2 °F /  16.8 °C 58.3 °F /  14.6 °C 30in /  1017.1hPa Calm     87% 0in /  0.0mm
03:09 62.2 °F /  16.8 °C 58.3 °F /  14.6 °C 30in /  1017.0hPa Calm     87% 0in /  0.0mm
03:14 62.2 °F /  16.8 °C 58.1 °F /  14.5 °C 30in /  1017.0hPa Calm     86.5% 0in /  0.0mm
03:19 62.2 °F /  16.8 °C 58.1 °F /  14.5 °C 30in /  1017.0hPa Calm   2.9mph /  4.7km/h 86% 0in /  0.0mm
03:24 62.4 °F /  16.9 °C 58.3 °F /  14.6 °C 30in /  1016.8hPa Calm   3.5mph /  5.6km/h 86% 0in /  0.0mm
03:29 62.4 °F /  16.9 °C 58.3 °F /  14.6 °C 30in /  1016.8hPa ENE 0.7mph /  1.2km/h 4.7mph /  7.6km/h 86% 0in /  0.0mm
03:34 62.4 °F /  16.9 °C 58.3 °F /  14.6 °C 30in /  1016.8hPa NE 1.8mph /  2.9km/h 5mph /  8km/h 86% 0in /  0.0mm
03:39 62.6 °F /  17 °C 58.3 °F /  14.6 °C 30in /  1016.7hPa North 1.8mph /  2.9km/h 3mph /  4.8km/h 86% 0in /  0.0mm
03:44 62.8 °F /  17.1 °C 58.5 °F /  14.7 °C 30in /  1016.7hPa ONO 1.8mph /  2.9km/h 4.6mph /  7.4km/h 85.6% 0in /  0.0mm
03:49 62.8 °F /  17.1 °C 58.3 °F /  14.6 °C 30in /  1016.7hPa NO 1.9mph /  3km/h 5mph /  8km/h 85% 0in /  0.0mm
03:54 63 °F /  17.2 °C 58.3 °F /  14.6 °C 30in /  1016.6hPa NO 2mph /  3.2km/h 5mph /  8km/h 85% 0in /  0.0mm
03:59 63 °F /  17.2 °C 58.5 °F /  14.7 °C 30in /  1016.6hPa NO 1mph /  1.6km/h 4.6mph /  7.4km/h 85% 0in /  0.0mm
04:04 63 °F /  17.2 °C 58.5 °F /  14.7 °C 30in /  1016.8hPa Calm   5mph /  8km/h 85% 0in /  0.0mm
04:09 63 °F /  17.2 °C 58.3 °F /  14.6 °C 30in /  1016.8hPa NNO 0.7mph /  1.2km/h 5mph /  8km/h 84.6% 0in /  0.0mm
04:14 63 °F /  17.2 °C 58.5 °F /  14.7 °C 30in /  1016.8hPa NNO 2mph /  3.2km/h 3mph /  4.8km/h 85% 0in /  0.0mm
04:19 63.1 °F /  17.3 °C 58.5 °F /  14.7 °C 30in /  1016.8hPa NNO 1.2mph /  1.9km/h 1mph /  1.6km/h 84.8% 0in /  0.0mm
04:24 63.1 °F /  17.3 °C 58.3 °F /  14.6 °C 30in /  1016.7hPa Calm     84.3% 0in /  0.0mm
04:29 63.1 °F /  17.3 °C 58.5 °F /  14.7 °C 30in /  1016.7hPa Calm     85% 0in /  0.0mm
04:34 63 °F /  17.2 °C 58.5 °F /  14.7 °C 30in /  1016.7hPa Calm     85% 0in /  0.0mm
04:39 63 °F /  17.2 °C 58.5 °F /  14.7 °C 30in /  1016.7hPa Calm     85% 0in /  0.0mm
04:44 63 °F /  17.2 °C 58.5 °F /  14.7 °C 30in /  1016.7hPa Calm     85% 0in /  0.0mm
04:49 63 °F /  17.2 °C 58.5 °F /  14.7 °C 30in /  1016.7hPa Calm     85% 0in /  0.0mm
04:54 63 °F /  17.2 °C 58.3 °F /  14.6 °C 30in /  1016.7hPa Calm     85% 0in /  0.0mm
04:59 62.8 °F /  17.1 °C 58.3 °F /  14.6 °C 30in /  1016.7hPa Calm     85% 0in /  0.0mm
05:04 62.8 °F /  17.1 °C 58.3 °F /  14.6 °C 30in /  1016.7hPa Calm   4.6mph /  7.4km/h 85% 0in /  0.0mm
05:09 62.8 °F /  17.1 °C 58.3 °F /  14.6 °C 30in /  1016.7hPa NNO 0.6mph /  0.9km/h 5mph /  8km/h 85% 0in /  0.0mm
05:14 63 °F /  17.2 °C 58.5 °F /  14.7 °C 30in /  1016.7hPa NNO 1.4mph /  2.2km/h 5mph /  8km/h 85% 0in /  0.0mm
05:19 63 °F /  17.2 °C 58.5 °F /  14.7 °C 30in /  1016.7hPa NNO 0.9mph /  1.4km/h   85% 0in /  0.0mm
05:24 63 °F /  17.2 °C 58.5 °F /  14.7 °C 30in /  1016.7hPa Calm   2.3mph /  3.7km/h 85% 0in /  0.0mm
05:29 63 °F /  17.2 °C 58.5 °F /  14.7 °C 30in /  1016.7hPa Calm   2.9mph /  4.7km/h 85% 0in /  0.0mm
05:34 63 °F /  17.2 °C 58.3 °F /  14.6 °C 30in /  1016.7hPa Calm   3mph /  4.8km/h 84.6% 0in /  0.0mm
05:39 63 °F /  17.2 °C 58.1 °F /  14.5 °C 30in /  1016.7hPa Calm   3.6mph /  5.8km/h 84.4% 0in /  0.0mm
05:44 63 °F /  17.2 °C 58.5 °F /  14.7 °C 30in /  1016.7hPa Calm   4.6mph /  7.4km/h 85% 0in /  0.0mm
05:49 63 °F /  17.2 °C 58.5 °F /  14.7 °C 30in /  1016.7hPa NE 0.9mph /  1.5km/h 5mph /  8km/h 85% 0in /  0.0mm
05:54 63 °F /  17.2 °C 58.3 °F /  14.6 °C 30in /  1016.7hPa NE 2.4mph /  3.9km/h 5mph /  8km/h 85% 0in /  0.0mm
05:59 62.8 °F /  17.1 °C 58.3 °F /  14.6 °C 30in /  1016.7hPa NE 2.2mph /  3.5km/h 5mph /  8km/h 85% 0in /  0.0mm
06:04 62.8 °F /  17.1 °C 58.3 °F /  14.6 °C 30in /  1016.7hPa NE 2mph /  3.2km/h 4.6mph /  7.4km/h 85% 0in /  0.0mm
06:09 62.8 °F /  17.1 °C 58.3 °F /  14.6 °C 30in /  1016.3hPa NE 2.2mph /  3.5km/h 5mph /  8km/h 85% 0in /  0.0mm
06:14 62.8 °F /  17.1 °C 58.3 °F /  14.6 °C 30in /  1016.3hPa Este 2.4mph /  3.9km/h 5.8mph /  9.3km/h 85.1% 0in /  0.0mm
06:19 62.6 °F /  17 °C 58.1 °F /  14.5 °C 30in /  1016.3hPa ENE 2.6mph /  4.2km/h 6mph /  9.7km/h 85% 0in /  0.0mm
06:24 62.6 °F /  17 °C 58.3 °F /  14.6 °C 30in /  1016.0hPa ENE 2.9mph /  4.6km/h 5mph /  8km/h 85.8% 0in /  0.0mm
06:29 62.6 °F /  17 °C 58.5 °F /  14.7 °C 30in /  1016.0hPa ENE 1.8mph /  2.9km/h 2mph /  3.2km/h 86% 0in /  0.0mm
06:34 62.8 °F /  17.1 °C 58.5 °F /  14.7 °C 30in /  1016.2hPa Calm     85.7% 0in /  0.0mm
06:39 62.8 °F /  17.1 °C 58.3 °F /  14.6 °C 30in /  1016.2hPa Calm   2.9mph /  4.7km/h 85% 0in /  0.0mm
06:44 62.8 °F /  17.1 °C 58.5 °F /  14.7 °C 30in /  1016.2hPa Calm   3mph /  4.8km/h 85.7% 0in /  0.0mm
06:49 62.8 °F /  17.1 °C 58.3 °F /  14.6 °C 30in /  1016.3hPa Calm   3.6mph /  5.8km/h 85.4% 0in /  0.0mm
06:54 62.8 °F /  17.1 °C 58.5 °F /  14.7 °C 30in /  1016.3hPa Calm   4mph /  6.4km/h 85.8% 0in /  0.0mm
06:59 62.8 °F /  17.1 °C 58.3 °F /  14.6 °C 30in /  1016.3hPa NO 0.9mph /  1.4km/h 3.6mph /  5.8km/h 85.2% 0in /  0.0mm
07:04 62.8 °F /  17.1 °C 58.5 °F /  14.7 °C 30in /  1016.3hPa NO 1.8mph /  2.9km/h 4mph /  6.4km/h 85.6% 0in /  0.0mm
07:09 62.8 °F /  17.1 °C 58.3 °F /  14.6 °C 30in /  1016.3hPa NO 1.1mph /  1.8km/h 3mph /  4.8km/h 85% 0in /  0.0mm
07:14 62.8 °F /  17.1 °C 58.3 °F /  14.6 °C 30in /  1016.3hPa Calm     85% 0in /  0.0mm
07:19 62.8 °F /  17.1 °C 58.3 °F /  14.6 °C 30in /  1016.5hPa Calm   3.1mph /  5km/h 85% 0in /  0.0mm
07:24 63 °F /  17.2 °C 58.3 °F /  14.6 °C 30in /  1016.5hPa Calm   3.5mph /  5.6km/h 85% 0in /  0.0mm
07:29 63 °F /  17.2 °C 58.1 °F /  14.5 °C 30in /  1016.5hPa SO 0.5mph /  0.8km/h 5.9mph /  9.5km/h 84.3% 0in /  0.0mm
07:34 63 °F /  17.2 °C 57.7 °F /  14.3 °C 30in /  1016.6hPa SSO 1.4mph /  2.2km/h 6mph /  9.7km/h 83% 0in /  0.0mm
07:39 63 °F /  17.2 °C 57.6 °F /  14.2 °C 30in /  1016.6hPa SO 2mph /  3.2km/h 5.2mph /  8.4km/h 82.7% 0in /  0.0mm
07:44 63.1 °F /  17.3 °C 57.6 °F /  14.2 °C 30in /  1016.6hPa SSO 2.9mph /  4.7km/h 6.2mph /  10km/h 82% 0in /  0.0mm
07:49 63.1 °F /  17.3 °C 57.6 °F /  14.2 °C 30in /  1016.7hPa SO 2.9mph /  4.7km/h 6mph /  9.7km/h 81.7% 0in /  0.0mm
07:54 63.1 °F /  17.3 °C 57.2 °F /  14 °C 30in /  1016.7hPa SO 2.9mph /  4.6km/h 5.8mph /  9.3km/h 81% 0in /  0.0mm
07:59 63.1 °F /  17.3 °C 57.2 °F /  14 °C 30in /  1016.7hPa SO 3mph /  4.8km/h 6mph /  9.7km/h 81% 0in /  0.0mm
08:04 63.1 °F /  17.3 °C 57.4 °F /  14.1 °C 30in /  1016.7hPa SO 3.1mph /  5km/h 6.2mph /  10km/h 81% 0in /  0.0mm
08:09 63.3 °F /  17.4 °C 57.4 °F /  14.1 °C 30in /  1016.7hPa SSO 2.8mph /  4.5km/h 6.2mph /  10km/h 81% 0in /  0.0mm
08:14 63.3 °F /  17.4 °C 57.2 °F /  14 °C 30in /  1016.7hPa SO 2.4mph /  3.9km/h 6.9mph /  11.1km/h 80.6% 0in /  0.0mm
08:19 63.3 °F /  17.4 °C 57 °F /  13.9 °C 30in /  1016.7hPa OSO 3mph /  4.8km/h 7mph /  11.3km/h 80% 0in /  0.0mm
08:24 63.1 °F /  17.3 °C 57 °F /  13.9 °C 30in /  1016.6hPa OSO 4mph /  6.5km/h 7mph /  11.3km/h 80.2% 0in /  0.0mm
08:29 63.1 °F /  17.3 °C 57.2 °F /  14 °C 30in /  1016.6hPa Oeste 4.1mph /  6.6km/h 8.1mph /  13km/h 80.8% 0in /  0.0mm
08:34 63.1 °F /  17.3 °C 57 °F /  13.9 °C 30in /  1016.7hPa ONO 4.3mph /  6.9km/h 8mph /  12.9km/h 80.3% 0in /  0.0mm
08:39 63.3 °F /  17.4 °C 57.2 °F /  14 °C 30in /  1016.7hPa Oeste 4mph /  6.5km/h 6.9mph /  11.1km/h 80.3% 0in /  0.0mm
08:44 63.5 °F /  17.5 °C 57 °F /  13.9 °C 30in /  1016.7hPa OSO 3.6mph /  5.8km/h 8.5mph /  13.7km/h 79.4% 0in /  0.0mm
08:49 63.3 °F /  17.4 °C 56.8 °F /  13.8 °C 30in /  1016.9hPa Oeste 4mph /  6.5km/h 9mph /  14.5km/h 79.4% 0in /  0.0mm
08:54 63.7 °F /  17.6 °C 57 °F /  13.9 °C 30in /  1016.9hPa SO 4.7mph /  7.6km/h 9.2mph /  14.8km/h 79.3% 0in /  0.0mm
08:59 63.7 °F /  17.6 °C 57 °F /  13.9 °C 30in /  1016.9hPa OSO 5mph /  8km/h 9mph /  14.5km/h 79% 0in /  0.0mm
09:04 63.7 °F /  17.6 °C 57 °F /  13.9 °C 30in /  1016.9hPa OSO 5.2mph /  8.4km/h 9mph /  14.5km/h 79% 0in /  0.0mm
09:09 63.5 °F /  17.5 °C 56.8 °F /  13.8 °C 30in /  1016.9hPa Oeste 4.8mph /  7.8km/h 9mph /  14.5km/h 79% 0in /  0.0mm
09:14 63.5 °F /  17.5 °C 56.8 °F /  13.8 °C 30in /  1016.9hPa OSO 4.3mph /  6.9km/h 8.1mph /  13km/h 79% 0in /  0.0mm
09:19 63.7 °F /  17.6 °C 57 °F /  13.9 °C 30in /  1016.9hPa OSO 4.7mph /  7.5km/h 8.1mph /  13km/h 79% 0in /  0.0mm
09:24 63.7 °F /  17.6 °C 57 °F /  13.9 °C 30in /  1016.8hPa OSO 5.2mph /  8.4km/h 10.2mph /  16.4km/h 79% 0in /  0.0mm
09:29 63.9 °F /  17.7 °C 57.2 °F /  14 °C 30in /  1016.8hPa OSO 5.2mph /  8.4km/h 10mph /  16.1km/h 78.7% 0in /  0.0mm
09:34 64 °F /  17.8 °C 57 °F /  13.9 °C 30in /  1016.8hPa Oeste 5.2mph /  8.4km/h 8mph /  12.9km/h 78% 0in /  0.0mm
09:39 64.4 °F /  18 °C 57.4 °F /  14.1 °C 30in /  1016.8hPa SO 4.7mph /  7.6km/h 7mph /  11.3km/h 77.8% 0in /  0.0mm
09:44 64.6 °F /  18.1 °C 57.2 °F /  14 °C 30in /  1016.8hPa SSO 4mph /  6.5km/h 7mph /  11.3km/h 77% 0in /  0.0mm
09:49 64.8 °F /  18.2 °C 57.4 °F /  14.1 °C 30in /  1016.8hPa OSO 3.7mph /  5.9km/h 6.2mph /  10km/h 76.9% 0in /  0.0mm
09:54 65.1 °F /  18.4 °C 57.4 °F /  14.1 °C 30in /  1016.6hPa SO 3.1mph /  5km/h 8.1mph /  13km/h 76% 0in /  0.0mm
09:59 65.1 °F /  18.4 °C 57.4 °F /  14.1 °C 30in /  1016.6hPa SO 3.5mph /  5.7km/h 8.1mph /  13km/h 76% 0in /  0.0mm
10:04 65.3 °F /  18.5 °C 57.6 °F /  14.2 °C 30in /  1016.6hPa OSO 4mph /  6.5km/h 8mph /  12.9km/h 76% 0in /  0.0mm
10:09 65.7 °F /  18.7 °C 57.6 °F /  14.2 °C 30in /  1016.6hPa SO 3.7mph /  5.9km/h 7mph /  11.3km/h 75.3% 0in /  0.0mm
10:14 66 °F /  18.9 °C 57.7 °F /  14.3 °C 30in /  1016.6hPa SO 3.1mph /  5km/h 9.2mph /  14.8km/h 74.6% 0in /  0.0mm
10:19 66.2 °F /  19 °C 57.6 °F /  14.2 °C 30in /  1016.6hPa Sur 3.5mph /  5.7km/h 9mph /  14.5km/h 73.8% 0in /  0.0mm
10:24 66.4 °F /  19.1 °C 57.6 °F /  14.2 °C 30in /  1016.6hPa SO 4.3mph /  6.9km/h 7mph /  11.3km/h 73.2% 0in /  0.0mm
10:29 66.6 °F /  19.2 °C 57.7 °F /  14.3 °C 30in /  1016.6hPa OSO 3.9mph /  6.2km/h 7mph /  11.3km/h 73.3% 0in /  0.0mm
10:34 66.9 °F /  19.4 °C 57.9 °F /  14.4 °C 30in /  1016.6hPa OSO 3.1mph /  5km/h 6mph /  9.7km/h 72.8% 0in /  0.0mm
10:39 67.5 °F /  19.7 °C 57.9 °F /  14.4 °C 30in /  1016.6hPa Sur 3mph /  4.9km/h 6mph /  9.7km/h 72% 0in /  0.0mm
10:44 67.8 °F /  19.9 °C 57.6 °F /  14.2 °C 30in /  1016.6hPa OSO 2.9mph /  4.6km/h 6.9mph /  11.1km/h 69.8% 0in /  0.0mm
10:49 68.2 °F /  20.1 °C 57.6 °F /  14.2 °C 30in /  1016.6hPa ONO 2.7mph /  4.4km/h 7mph /  11.3km/h 68.9% 0in /  0.0mm
10:54 68.4 °F /  20.2 °C 57.6 °F /  14.2 °C 30in /  1016.5hPa SSO 2.4mph /  3.9km/h 9.2mph /  14.8km/h 68.2% 0in /  0.0mm
10:59 68.5 °F /  20.3 °C 57.6 °F /  14.2 °C 30in /  1016.5hPa SSO 3.2mph /  5.1km/h 9mph /  14.5km/h 67.7% 0in /  0.0mm
11:04 68.9 °F /  20.5 °C 57.4 °F /  14.1 °C 30in /  1016.5hPa SSO 4mph /  6.5km/h 7.4mph /  11.9km/h 67% 0in /  0.0mm
11:09 69.1 °F /  20.6 °C 57.7 °F /  14.3 °C 30in /  1016.4hPa Sur 4mph /  6.5km/h 7mph /  11.3km/h 67.2% 0in /  0.0mm
11:14 69.4 °F /  20.8 °C 57.7 °F /  14.3 °C 30in /  1016.4hPa SO 4mph /  6.5km/h 8.1mph /  13km/h 66.2% 0in /  0.0mm
11:19 69.6 °F /  20.9 °C 57.2 °F /  14 °C 30in /  1016.4hPa SO 4mph /  6.5km/h 8.1mph /  13km/h 64.8% 0in /  0.0mm
11:24 69.8 °F /  21 °C 57.4 °F /  14.1 °C 30in /  1016.4hPa SSO 4mph /  6.5km/h 8mph /  12.9km/h 64.8% 0in /  0.0mm
11:29 70.2 °F /  21.2 °C 57.4 °F /  14.1 °C 30in /  1016.4hPa SSO 3.7mph /  5.9km/h 6.9mph /  11.1km/h 64.3% 0in /  0.0mm
11:34 70.3 °F /  21.3 °C 57.7 °F /  14.3 °C 30in /  1016.4hPa SSE 3.1mph /  5km/h 7mph /  11.3km/h 64% 0in /  0.0mm
11:39 71.2 °F /  21.8 °C 57.7 °F /  14.3 °C 30in /  1016.3hPa NNE 2.8mph /  4.5km/h 5.9mph /  9.5km/h 62.4% 0in /  0.0mm
11:44 71.6 °F /  22 °C 57 °F /  13.9 °C 30in /  1016.3hPa SO 2.4mph /  3.9km/h 8.1mph /  13km/h 60% 0in /  0.0mm
11:49 71.8 °F /  22.1 °C 56.7 °F /  13.7 °C 30in /  1016.3hPa SSO 3mph /  4.9km/h 8.1mph /  13km/h 59% 0in /  0.0mm
11:54 72 °F /  22.2 °C 56.5 °F /  13.6 °C 30in /  1016.2hPa SE 4mph /  6.5km/h 8mph /  12.9km/h 58.4% 0in /  0.0mm
11:59 72.3 °F /  22.4 °C 56.7 °F /  13.7 °C 30in /  1016.2hPa Este 3.2mph /  5.2km/h 6mph /  9.7km/h 58.1% 0in /  0.0mm
12:04 73 °F /  22.8 °C 56.7 °F /  13.7 °C 30in /  1016.2hPa SE 2.4mph /  3.9km/h 5.8mph /  9.3km/h 56.6% 0in /  0.0mm
12:09 73.2 °F /  22.9 °C 56.3 °F /  13.5 °C 30in /  1016.1hPa SO 2.6mph /  4.2km/h 6mph /  9.7km/h 55.2% 0in /  0.0mm
12:14 73.8 °F /  23.2 °C 56.5 °F /  13.6 °C 30in /  1016.1hPa NO 2.9mph /  4.7km/h 6mph /  9.7km/h 55% 0in /  0.0mm
12:19 74.1 °F /  23.4 °C 56.5 °F /  13.6 °C 30in /  1016.1hPa ESE 2.9mph /  4.7km/h 6mph /  9.7km/h 54.1% 0in /  0.0mm
12:24 74.5 °F /  23.6 °C 56.3 °F /  13.5 °C 30in /  1016.1hPa ESE 2.9mph /  4.6km/h 5mph /  8km/h 53.1% 0in /  0.0mm
12:29 74.8 °F /  23.8 °C 56.1 °F /  13.4 °C 30in /  1016.1hPa SSO 2.9mph /  4.7km/h 6.9mph /  11.1km/h 52.3% 0in /  0.0mm
12:34 74.8 °F /  23.8 °C 55.9 °F /  13.3 °C 30in /  1016.1hPa SSE 2.9mph /  4.7km/h 7mph /  11.3km/h 51.7% 0in /  0.0mm
12:39 75 °F /  23.9 °C 55.6 °F /  13.1 °C 30in /  1015.9hPa ENE 3mph /  4.8km/h 7.6mph /  12.2km/h 50.8% 0in /  0.0mm
12:44 75 °F /  23.9 °C 55.8 °F /  13.2 °C 30in /  1015.9hPa NNE 3.1mph /  5km/h 8.1mph /  13km/h 51.2% 0in /  0.0mm
12:49 75.6 °F /  24.2 °C 55.9 °F /  13.3 °C 30in /  1015.9hPa NE 3.5mph /  5.6km/h 6.9mph /  11.1km/h 50.8% 0in /  0.0mm
12:54 75.7 °F /  24.3 °C 55.8 °F /  13.2 °C 30in /  1015.7hPa NNE 4mph /  6.5km/h 7mph /  11.3km/h 50% 0in /  0.0mm
12:59 76.5 °F /  24.7 °C 55.8 °F /  13.2 °C 30in /  1015.7hPa OSO 3.5mph /  5.6km/h 8.1mph /  13km/h 49% 0in /  0.0mm
13:04 76.6 °F /  24.8 °C 55.9 °F /  13.3 °C 30in /  1015.7hPa North 2.9mph /  4.6km/h 8mph /  12.9km/h 48.9% 0in /  0.0mm
13:09 76.6 °F /  24.8 °C 55.9 °F /  13.3 °C 30in /  1015.5hPa NE 2.9mph /  4.7km/h 6mph /  9.7km/h 49% 0in /  0.0mm
13:14 76.8 °F /  24.9 °C 55.4 °F /  13 °C 30in /  1015.5hPa NE 2.9mph /  4.7km/h 6.2mph /  10km/h 47.4% 0in /  0.0mm
13:19 77.2 °F /  25.1 °C 54.3 °F /  12.4 °C 30in /  1015.5hPa NE 3mph /  4.8km/h 6mph /  9.7km/h 45.1% 0in /  0.0mm
13:24 77.5 °F /  25.3 °C 54.5 °F /  12.5 °C 30in /  1015.4hPa NNE 3.1mph /  5km/h 5mph /  8km/h 45.1% 0in /  0.0mm
13:29 77.9 °F /  25.5 °C 55.4 °F /  13 °C 30in /  1015.4hPa NE 3mph /  4.9km/h 9.2mph /  14.8km/h 45.7% 0in /  0.0mm
13:34 78.1 °F /  25.6 °C 54.7 °F /  12.6 °C 30in /  1015.4hPa NE 2.9mph /  4.6km/h 9.2mph /  14.8km/h 44.5% 0in /  0.0mm
13:39 78.3 °F /  25.7 °C 54.5 °F /  12.5 °C 30in /  1015.2hPa Este 2.9mph /  4.7km/h 6mph /  9.7km/h 44% 0in /  0.0mm
13:44 78.6 °F /  25.9 °C 54.7 °F /  12.6 °C 30in /  1015.2hPa SSO 2.9mph /  4.7km/h 6.9mph /  11.1km/h 43.6% 0in /  0.0mm
13:49 79 °F /  26.1 °C 54.9 °F /  12.7 °C 30in /  1015.2hPa SSE 2.9mph /  4.7km/h 7mph /  11.3km/h 43.4% 0in /  0.0mm
13:54 79.3 °F /  26.3 °C 54.7 °F /  12.6 °C 30in /  1015.0hPa ENE 2.9mph /  4.7km/h 11.2mph /  18km/h 42.7% 0in /  0.0mm
13:59 79 °F /  26.1 °C 54.5 °F /  12.5 °C 30in /  1015.0hPa NE 4.1mph /  6.6km/h 12mph /  19.3km/h 42.9% 0in /  0.0mm
14:04 78.8 °F /  26 °C 54.5 °F /  12.5 °C 30in /  1015.0hPa ESE 5.4mph /  8.7km/h 10.4mph /  16.7km/h 43% 0in /  0.0mm
14:09 79.2 °F /  26.2 °C 54.5 °F /  12.5 °C 30in /  1014.9hPa SSO 4.9mph /  7.9km/h 10mph /  16.1km/h 42.6% 0in /  0.0mm
14:14 79.2 °F /  26.2 °C 54.1 °F /  12.3 °C 30in /  1014.9hPa SO 4mph /  6.5km/h 7.4mph /  11.9km/h 42% 0in /  0.0mm
14:19 79.3 °F /  26.3 °C 54.7 °F /  12.6 °C 30in /  1014.9hPa Este 4mph /  6.5km/h 10.4mph /  16.7km/h 42.7% 0in /  0.0mm
14:24 79.5 °F /  26.4 °C 54.9 °F /  12.7 °C 30in /  1014.7hPa Este 4mph /  6.5km/h 10mph /  16.1km/h 42.7% 0in /  0.0mm
14:29 79.7 °F /  26.5 °C 54.5 °F /  12.5 °C 30in /  1014.7hPa ENE 4mph /  6.5km/h 9mph /  14.5km/h 42% 0in /  0.0mm
14:34 79.7 °F /  26.5 °C 54.9 °F /  12.7 °C 30in /  1014.7hPa ENE 4mph /  6.5km/h 10.2mph /  16.4km/h 42.5% 0in /  0.0mm
14:39 79.9 °F /  26.6 °C 55.8 °F /  13.2 °C 30in /  1014.4hPa Este 4.5mph /  7.3km/h 10.4mph /  16.7km/h 43.7% 0in /  0.0mm
14:44 80.1 °F /  26.7 °C 56.5 °F /  13.6 °C 30in /  1014.4hPa ESE 5.4mph /  8.7km/h 15.2mph /  24.5km/h 44.8% 0in /  0.0mm
14:49 80.1 °F /  26.7 °C 56.3 °F /  13.5 °C 30in /  1014.4hPa SSE 6.4mph /  10.3km/h 15mph /  24.1km/h 44.3% 0in /  0.0mm
14:54 80.1 °F /  26.7 °C 57 °F /  13.9 °C 30in /  1014.3hPa SSE 8.1mph /  13km/h 15mph /  24.1km/h 45.3% 0in /  0.0mm
14:59 80.2 °F /  26.8 °C 57.4 °F /  14.1 °C 30in /  1014.3hPa ESE 8.6mph /  13.9km/h 16.1mph /  25.9km/h 45.9% 0in /  0.0mm
15:04 80.2 °F /  26.8 °C 58.6 °F /  14.8 °C 30in /  1014.3hPa SE 9.2mph /  14.8km/h 18.4mph /  29.6km/h 47.7% 0in /  0.0mm
15:09 80.2 °F /  26.8 °C 58.8 °F /  14.9 °C 29.9in /  1014.1hPa SE 9.2mph /  14.8km/h 18mph /  29km/h 48.1% 0in /  0.0mm
15:14 80.1 °F /  26.7 °C 59.5 °F /  15.3 °C 29.9in /  1014.1hPa SE 9.2mph /  14.8km/h 19.2mph /  30.9km/h 49.5% 0in /  0.0mm
15:19 79.5 °F /  26.4 °C 59 °F /  15 °C 29.9in /  1014.1hPa SE 9.8mph /  15.7km/h 19mph /  30.6km/h 49.6% 0in /  0.0mm
15:24 79.3 °F /  26.3 °C 59 °F /  15 °C 29.9in /  1014.1hPa SE 10.7mph /  17.2km/h 19mph /  30.6km/h 49.8% 0in /  0.0mm
15:29 79.3 °F /  26.3 °C 59 °F /  15 °C 29.9in /  1014.1hPa SE 10.9mph /  17.5km/h 19mph /  30.6km/h 50% 0in /  0.0mm
15:34 79.2 °F /  26.2 °C 59.5 °F /  15.3 °C 29.9in /  1014.1hPa ESE 11.2mph /  18km/h 18.5mph /  29.8km/h 51% 0in /  0.0mm
15:39 79 °F /  26.1 °C 59.5 °F /  15.3 °C 29.9in /  1013.9hPa ESE 11.6mph /  18.7km/h 22.5mph /  36.2km/h 51.5% 0in /  0.0mm
15:44 78.6 °F /  25.9 °C 59.2 °F /  15.1 °C 29.9in /  1013.9hPa ESE 12.3mph /  19.8km/h 23mph /  37km/h 51.3% 0in /  0.0mm
15:49 78.4 °F /  25.8 °C 59.2 °F /  15.1 °C 29.9in /  1013.9hPa ESE 12.6mph /  20.2km/h 23mph /  37km/h 51.6% 0in /  0.0mm
15:54 79.2 °F /  26.2 °C 58.8 °F /  14.9 °C 29.9in /  1013.8hPa SE 13mph /  20.9km/h 18mph /  29km/h 49.6% 0in /  0.0mm
15:59 79.3 °F /  26.3 °C 58.5 °F /  14.7 °C 29.9in /  1013.8hPa SE 11.2mph /  18km/h 15mph /  24.1km/h 49% 0in /  0.0mm
16:04 79.5 °F /  26.4 °C 58.3 °F /  14.6 °C 29.9in /  1013.8hPa SE 9.2mph /  14.8km/h 16.3mph /  26.2km/h 48.4% 0in /  0.0mm
16:09 79.7 °F /  26.5 °C 57.9 °F /  14.4 °C 29.9in /  1013.6hPa SE 9.2mph /  14.8km/h 16mph /  25.7km/h 47.5% 0in /  0.0mm
16:14 80.2 °F /  26.8 °C 58.3 °F /  14.6 °C 29.9in /  1013.6hPa ESE 9.2mph /  14.8km/h 15mph /  24.1km/h 47.2% 0in /  0.0mm
16:19 80.4 °F /  26.9 °C 57.7 °F /  14.3 °C 29.9in /  1013.6hPa ESE 8.8mph /  14.1km/h 13.8mph /  22.2km/h 46% 0in /  0.0mm
16:24 80.4 °F /  26.9 °C 57.2 °F /  14 °C 29.9in /  1013.4hPa Este 8.1mph /  13km/h 14mph /  22.5km/h 45.2% 0in /  0.0mm
16:29 80.4 °F /  26.9 °C 56.8 °F /  13.8 °C 29.9in /  1013.4hPa SE 8.3mph /  13.3km/h 13mph /  20.9km/h 44.5% 0in /  0.0mm
16:34 80.6 °F /  27 °C 56.7 °F /  13.7 °C 29.9in /  1013.4hPa SE 8.5mph /  13.7km/h 15mph /  24.1km/h 44% 0in /  0.0mm
16:39 80.2 °F /  26.8 °C 55.8 °F /  13.2 °C 29.9in /  1013.3hPa SE 8.1mph /  13.1km/h 15mph /  24.1km/h 43% 0in /  0.0mm
16:44 80.4 °F /  26.9 °C 55.9 °F /  13.3 °C 29.9in /  1013.3hPa ESE 7.6mph /  12.2km/h 14mph /  22.5km/h 43% 0in /  0.0mm
16:49 80.4 °F /  26.9 °C 55.8 °F /  13.2 °C 29.9in /  1013.3hPa SE 7.1mph /  11.5km/h 12mph /  19.3km/h 42.8% 0in /  0.0mm
16:54 80.6 °F /  27 °C 54.9 °F /  12.7 °C 29.9in /  1013.2hPa Sur 6.4mph /  10.3km/h 13.8mph /  22.2km/h 41.3% 0in /  0.0mm
16:59 80.4 °F /  26.9 °C 55 °F /  12.8 °C 29.9in /  1013.2hPa SSE 7.4mph /  11.9km/h 14mph /  22.5km/h 41.7% 0in /  0.0mm
17:04 81 °F /  27.2 °C 55.6 °F /  13.1 °C 29.9in /  1013.2hPa SE 8.5mph /  13.7km/h 12.7mph /  20.4km/h 41.8% 0in /  0.0mm
17:09 81.1 °F /  27.3 °C 55.2 °F /  12.9 °C 29.9in /  1012.9hPa ESE 8.1mph /  13km/h 13mph /  20.9km/h 41.2% 0in /  0.0mm
17:14 81.3 °F /  27.4 °C 54.9 °F /  12.7 °C 29.9in /  1012.9hPa ESE 7.4mph /  11.9km/h 15mph /  24.1km/h 40% 0in /  0.0mm
17:19 81.3 °F /  27.4 °C 54.7 °F /  12.6 °C 29.9in /  1012.9hPa SE 7.5mph /  12km/h 15mph /  24.1km/h 39.9% 0in /  0.0mm
17:24 81.7 °F /  27.6 °C 54.5 °F /  12.5 °C 29.9in /  1012.8hPa SSE 7.6mph /  12.2km/h 13mph /  20.9km/h 39.4% 0in /  0.0mm
17:29 81.5 °F /  27.5 °C 54.1 °F /  12.3 °C 29.9in /  1012.8hPa SE 7.8mph /  12.5km/h 13mph /  20.9km/h 39% 0in /  0.0mm
17:34 81 °F /  27.2 °C 54.1 °F /  12.3 °C 29.9in /  1012.8hPa ESE 8.1mph /  13km/h 16.1mph /  25.9km/h 39.6% 0in /  0.0mm
17:39 80.8 °F /  27.1 °C 54.1 °F /  12.3 °C 29.9in /  1012.7hPa ESE 8.3mph /  13.4km/h 16.1mph /  25.9km/h 40% 0in /  0.0mm
17:44 80.4 °F /  26.9 °C 54.1 °F /  12.3 °C 29.9in /  1012.7hPa ESE 8.7mph /  14km/h 15mph /  24.1km/h 40.2% 0in /  0.0mm
17:49 80.4 °F /  26.9 °C 54.3 °F /  12.4 °C 29.9in /  1012.7hPa SE 8.7mph /  14km/h 15mph /  24.1km/h 40.6% 0in /  0.0mm
17:54 80.2 °F /  26.8 °C 54.3 °F /  12.4 °C 29.9in /  1012.6hPa SE 8.7mph /  14km/h 15mph /  24.1km/h 41% 0in /  0.0mm
17:59 79.9 °F /  26.6 °C 54.3 °F /  12.4 °C 29.9in /  1012.6hPa SE 8.6mph /  13.8km/h 15mph /  24.1km/h 41.4% 0in /  0.0mm
18:04 79.7 °F /  26.5 °C 54 °F /  12.2 °C 29.9in /  1012.6hPa ESE 8.5mph /  13.7km/h 15mph /  24.1km/h 41.2% 0in /  0.0mm
18:09 79.3 °F /  26.3 °C 54.1 °F /  12.3 °C 29.9in /  1012.5hPa ESE 8.9mph /  14.4km/h 15.2mph /  24.5km/h 41.8% 0in /  0.0mm
18:14 79.2 °F /  26.2 °C 54.5 °F /  12.5 °C 29.9in /  1012.5hPa SE 9.7mph /  15.6km/h 15mph /  24.1km/h 42.8% 0in /  0.0mm
18:19 79.2 °F /  26.2 °C 54.7 °F /  12.6 °C 29.9in /  1012.6hPa ESE 8.7mph /  14km/h 12.7mph /  20.4km/h 43% 0in /  0.0mm
18:24 79 °F /  26.1 °C 55 °F /  12.8 °C 29.9in /  1012.6hPa ESE 6.9mph /  11.1km/h 13mph /  20.9km/h 44% 0in /  0.0mm
18:29 78.6 °F /  25.9 °C 55.2 °F /  12.9 °C 29.9in /  1012.6hPa ESE 7.3mph /  11.8km/h 14mph /  22.5km/h 44.6% 0in /  0.0mm
18:34 78.6 °F /  25.9 °C 55.6 °F /  13.1 °C 29.9in /  1012.6hPa SE 8.1mph /  13km/h 14mph /  22.5km/h 45% 0in /  0.0mm
18:39 78.6 °F /  25.9 °C 55.6 °F /  13.1 °C 29.9in /  1012.6hPa ESE 8.1mph /  13km/h 15mph /  24.1km/h 45% 0in /  0.0mm
18:44 78.3 °F /  25.7 °C 55.4 °F /  13 °C 29.9in /  1012.6hPa ESE 8.1mph /  13km/h 15mph /  24.1km/h 45.2% 0in /  0.0mm
18:49 78.4 °F /  25.8 °C 55.8 °F /  13.2 °C 29.9in /  1012.6hPa ESE 8.1mph /  13km/h 14mph /  22.5km/h 45.8% 0in /  0.0mm
18:54 78.4 °F /  25.8 °C 55.8 °F /  13.2 °C 29.9in /  1012.5hPa SE 8.1mph /  13km/h 13mph /  20.9km/h 45.8% 0in /  0.0mm
18:59 78.1 °F /  25.6 °C 55.9 °F /  13.3 °C 29.9in /  1012.5hPa ESE 7.8mph /  12.5km/h 13mph /  20.9km/h 46.7% 0in /  0.0mm
19:04 77.7 °F /  25.4 °C 55.9 °F /  13.3 °C 29.9in /  1012.5hPa ESE 7.4mph /  11.9km/h 13.7mph /  22km/h 47% 0in /  0.0mm
19:09 77.5 °F /  25.3 °C 56.1 °F /  13.4 °C 29.9in /  1012.4hPa ESE 7.2mph /  11.6km/h 14mph /  22.5km/h 47.7% 0in /  0.0mm
19:14 77.4 °F /  25.2 °C 56.1 °F /  13.4 °C 29.9in /  1012.4hPa ESE 6.9mph /  11.1km/h 14mph /  22.5km/h 48% 0in /  0.0mm
19:19 77.4 °F /  25.2 °C 56.5 °F /  13.6 °C 29.9in /  1012.4hPa ESE 7.1mph /  11.5km/h 12mph /  19.3km/h 48.5% 0in /  0.0mm
19:24 77.4 °F /  25.2 °C 56.7 °F /  13.7 °C 29.9in /  1012.4hPa ESE 7.6mph /  12.2km/h 10.4mph /  16.7km/h 49% 0in /  0.0mm
19:29 77.4 °F /  25.2 °C 56.7 °F /  13.7 °C 29.9in /  1012.4hPa ESE 7mph /  11.2km/h 10.4mph /  16.7km/h 49% 0in /  0.0mm
19:34 77.2 °F /  25.1 °C 56.5 °F /  13.6 °C 29.9in /  1012.4hPa ESE 5.9mph /  9.5km/h 10mph /  16.1km/h 49% 0in /  0.0mm
19:39 77 °F /  25 °C 56.8 °F /  13.8 °C 29.9in /  1012.4hPa ESE 5.7mph /  9.2km/h 9.2mph /  14.8km/h 49.9% 0in /  0.0mm
19:44 76.6 °F /  24.8 °C 56.7 °F /  13.7 °C 29.9in /  1012.4hPa ESE 5.4mph /  8.7km/h 9mph /  14.5km/h 50% 0in /  0.0mm
19:49 76.6 °F /  24.8 °C 56.5 °F /  13.6 °C 29.9in /  1012.4hPa Este 5.2mph /  8.3km/h 7mph /  11.3km/h 50% 0in /  0.0mm
19:54 76.5 °F /  24.7 °C 56.5 °F /  13.6 °C 29.9in /  1012.4hPa ESE 4.7mph /  7.6km/h 6.9mph /  11.1km/h 50.3% 0in /  0.0mm
19:59 76.5 °F /  24.7 °C 56.8 °F /  13.8 °C 29.9in /  1012.4hPa ESE 4.5mph /  7.3km/h 7mph /  11.3km/h 50.9% 0in /  0.0mm
20:04 76.1 °F /  24.5 °C 56.7 °F /  13.7 °C 29.9in /  1012.4hPa ESE 4.3mph /  6.9km/h 7mph /  11.3km/h 51% 0in /  0.0mm
20:09 75.7 °F /  24.3 °C 56.7 °F /  13.7 °C 29.9in /  1012.4hPa ESE 4.3mph /  6.9km/h 7mph /  11.3km/h 51.3% 0in /  0.0mm
20:14 75.7 °F /  24.3 °C 57 °F /  13.9 °C 29.9in /  1012.4hPa Este 4.3mph /  6.9km/h 7mph /  11.3km/h 52% 0in /  0.0mm
20:19 75.7 °F /  24.3 °C 56.8 °F /  13.8 °C 29.9in /  1012.5hPa Este 3.9mph /  6.2km/h 6.9mph /  11.1km/h 52% 0in /  0.0mm
20:24 75.6 °F /  24.2 °C 57.2 °F /  14 °C 29.9in /  1012.5hPa ENE 3.1mph /  5km/h 7.4mph /  11.9km/h 52.9% 0in /  0.0mm
20:29 75.4 °F /  24.1 °C 57.6 °F /  14.2 °C 29.9in /  1012.5hPa NE 3.4mph /  5.5km/h 8.5mph /  13.7km/h 54% 0in /  0.0mm
20:34 74.8 °F /  23.8 °C 57.7 °F /  14.3 °C 29.9in /  1012.7hPa NE 4mph /  6.5km/h 9.7mph /  15.6km/h 55.2% 0in /  0.0mm
20:39 74.1 °F /  23.4 °C 58.8 °F /  14.9 °C 29.9in /  1012.7hPa NNE 4.8mph /  7.7km/h 11.5mph /  18.5km/h 58.6% 0in /  0.0mm
20:44 73.4 °F /  23 °C 59 °F /  15 °C 29.9in /  1012.7hPa NE 6.2mph /  10km/h 12mph /  19.3km/h 60.8% 0in /  0.0mm
20:49 72.9 °F /  22.7 °C 59 °F /  15 °C 29.9in /  1012.8hPa NE 6.5mph /  10.4km/h 12mph /  19.3km/h 61.9% 0in /  0.0mm
20:54 72.3 °F /  22.4 °C 58.8 °F /  14.9 °C 29.9in /  1012.8hPa NE 6.9mph /  11.1km/h 12mph /  19.3km/h 62.8% 0in /  0.0mm
20:59 71.8 °F /  22.1 °C 59 °F /  15 °C 29.9in /  1012.8hPa NNE 6.9mph /  11.1km/h 11.5mph /  18.5km/h 64.1% 0in /  0.0mm
21:04 71.2 °F /  21.8 °C 59 °F /  15 °C 29.9in /  1012.9hPa NE 6.9mph /  11.1km/h 13mph /  20.9km/h 65.5% 0in /  0.0mm
21:09 71.1 °F /  21.7 °C 59.2 °F /  15.1 °C 29.9in /  1012.9hPa NE 6.7mph /  10.8km/h 12mph /  19.3km/h 66.4% 0in /  0.0mm
21:14 70.5 °F /  21.4 °C 59.4 °F /  15.2 °C 29.9in /  1012.9hPa NNE 6.4mph /  10.3km/h 10.7mph /  17.2km/h 67.6% 0in /  0.0mm
21:19 70.2 °F /  21.2 °C 59.5 °F /  15.3 °C 29.9in /  1012.9hPa NE 6.3mph /  10.2km/h 11mph /  17.7km/h 69.2% 0in /  0.0mm
21:24 69.8 °F /  21 °C 59.7 °F /  15.4 °C 29.9in /  1012.9hPa NNE 6.2mph /  10km/h 9mph /  14.5km/h 70.1% 0in /  0.0mm
21:29 69.6 °F /  20.9 °C 59.7 °F /  15.4 °C 29.9in /  1012.9hPa NNE 5.5mph /  8.9km/h 7.4mph /  11.9km/h 71% 0in /  0.0mm
21:34 69.3 °F /  20.7 °C 59.9 °F /  15.5 °C 29.9in /  1012.9hPa NNE 4.3mph /  6.9km/h 7mph /  11.3km/h 72% 0in /  0.0mm
21:39 69.1 °F /  20.6 °C 60.1 °F /  15.6 °C 29.9in /  1012.9hPa NNE 4.5mph /  7.2km/h 9.2mph /  14.8km/h 72.9% 0in /  0.0mm
21:44 68.5 °F /  20.3 °C 59.9 °F /  15.5 °C 29.9in /  1012.9hPa NNE 4.7mph /  7.6km/h 10.4mph /  16.7km/h 73.8% 0in /  0.0mm
21:49 68.4 °F /  20.2 °C 60.1 °F /  15.6 °C 29.9in /  1013.0hPa NNE 4.9mph /  7.9km/h 10mph /  16.1km/h 75% 0in /  0.0mm
21:54 68 °F /  20 °C 60.1 °F /  15.6 °C 29.9in /  1013.0hPa NNE 5.2mph /  8.4km/h 10.4mph /  16.7km/h 75.8% 0in /  0.0mm
21:59 67.6 °F /  19.8 °C 60.1 °F /  15.6 °C 29.9in /  1013.0hPa NNE 5.5mph /  8.9km/h 10mph /  16.1km/h 76.8% 0in /  0.0mm
22:04 67.5 °F /  19.7 °C 60.1 °F /  15.6 °C 29.9in /  1013.2hPa NE 5.9mph /  9.5km/h 9mph /  14.5km/h 77.3% 0in /  0.0mm
22:09 67.3 °F /  19.6 °C 60.3 °F /  15.7 °C 29.9in /  1013.2hPa NNE 5.1mph /  8.2km/h 7.4mph /  11.9km/h 78% 0in /  0.0mm
22:14 67.1 °F /  19.5 °C 59.9 °F /  15.5 °C 29.9in /  1013.2hPa NE 3.6mph /  5.8km/h 7mph /  11.3km/h 78% 0in /  0.0mm
22:19 66.9 °F /  19.4 °C 59.9 °F /  15.5 °C 29.9in /  1013.5hPa NNE 3.4mph /  5.5km/h 7mph /  11.3km/h 78.4% 0in /  0.0mm
22:24 66.7 °F /  19.3 °C 60.1 °F /  15.6 °C 29.9in /  1013.5hPa NNE 3.1mph /  5km/h 6mph /  9.7km/h 79% 0in /  0.0mm
22:29 66.7 °F /  19.3 °C 59.9 °F /  15.5 °C 29.9in /  1013.5hPa NNE 2.9mph /  4.6km/h 6mph /  9.7km/h 79% 0in /  0.0mm
22:34 66.6 °F /  19.2 °C 60.1 °F /  15.6 °C 29.9in /  1013.6hPa NNE 2.4mph /  3.9km/h 6.9mph /  11.1km/h 79.6% 0in /  0.0mm
22:39 66.4 °F /  19.1 °C 60.1 °F /  15.6 °C 29.9in /  1013.6hPa NNE 3mph /  4.8km/h 7.4mph /  11.9km/h 80.5% 0in /  0.0mm
22:44 66 °F /  18.9 °C 60.1 °F /  15.6 °C 29.9in /  1013.6hPa North 4mph /  6.5km/h 8.1mph /  13km/h 81.3% 0in /  0.0mm
22:49 66 °F /  18.9 °C 60.3 °F /  15.7 °C 29.9in /  1013.8hPa NNE 3.9mph /  6.2km/h 8mph /  12.9km/h 82% 0in /  0.0mm
22:54 65.8 °F /  18.8 °C 60.3 °F /  15.7 °C 29.9in /  1013.8hPa NE 3.6mph /  5.8km/h 7mph /  11.3km/h 82% 0in /  0.0mm
22:59 65.7 °F /  18.7 °C 60.4 °F /  15.8 °C 29.9in /  1013.8hPa NE 3.3mph /  5.3km/h 6mph /  9.7km/h 82.9% 0in /  0.0mm
23:04 65.5 °F /  18.6 °C 60.3 °F /  15.7 °C 29.9in /  1013.8hPa NNE 2.9mph /  4.6km/h 5.9mph /  9.5km/h 83% 0in /  0.0mm
23:09 65.3 °F /  18.5 °C 60.3 °F /  15.7 °C 29.9in /  1013.7hPa NNE 3.2mph /  5.1km/h 6mph /  9.7km/h 83.9% 0in /  0.0mm
23:14 65.1 °F /  18.4 °C 60.3 °F /  15.7 °C 29.9in /  1013.7hPa North 3.6mph /  5.8km/h 6mph /  9.7km/h 84% 0in /  0.0mm
23:19 64.9 °F /  18.3 °C 60.1 °F /  15.6 °C 29.9in /  1013.8hPa NNE 3.4mph /  5.4km/h 6mph /  9.7km/h 84.1% 0in /  0.0mm
23:24 64.9 °F /  18.3 °C 60.3 °F /  15.7 °C 29.9in /  1013.8hPa NNE 2.9mph /  4.7km/h 5.9mph /  9.5km/h 85% 0in /  0.0mm
23:29 64.8 °F /  18.2 °C 60.1 °F /  15.6 °C 29.9in /  1013.8hPa North 2.9mph /  4.7km/h 6mph /  9.7km/h 85% 0in /  0.0mm
23:34 64.8 °F /  18.2 °C 60.1 °F /  15.6 °C 29.9in /  1013.8hPa North 2.9mph /  4.7km/h 6mph /  9.7km/h 85% 0in /  0.0mm
23:39 64.8 °F /  18.2 °C 60.1 °F /  15.6 °C 29.9in /  1013.8hPa NNO 2.9mph /  4.7km/h 6mph /  9.7km/h 85% 0in /  0.0mm
23:44 64.6 °F /  18.1 °C 60.1 °F /  15.6 °C 29.9in /  1013.8hPa North 2.9mph /  4.6km/h 6mph /  9.7km/h 85% 0in /  0.0mm
23:49 64.6 °F /  18.1 °C 60.1 °F /  15.6 °C 29.9in /  1013.9hPa NNO 2.5mph /  4km/h 4mph /  6.4km/h 85% 0in /  0.0mm
23:54 64.6 °F /  18.1 °C 60.1 °F /  15.6 °C 29.9in /  1013.9hPa NNO 1.8mph /  2.9km/h 4mph /  6.4km/h 85% 0in /  0.0mm
23:59 64.6 °F /  18.1 °C 59.9 °F /  15.5 °C 29.9in /  1013.9hPa NO 2.1mph /  3.4km/h 5.2mph /  8.4km/h 85% 0in /  0.0mm
Murcia-Puente Tocinos, España
Compliments of Weather Underground - 3 mb

La estación de MeteoMurcia.com, publica sus datos en los siguientes proyectos:

Weather Underground PWS IMURCIAP2 Meteoclimatic www.awekas.at

W3Counter
Web Analytics